sensor_id;sensor_type;location;lat;lon;timestamp;P1;durP1;ratioP1;P2;durP2;ratioP2
50821;SDS011;36794;51.212;6.980;2023-04-03T00:00:29;10.77;;;6.90;;
50821;SDS011;36794;51.212;6.980;2023-04-03T00:02:55;10.90;;;6.73;;
50821;SDS011;36794;51.212;6.980;2023-04-03T00:05:21;10.73;;;6.77;;
50821;SDS011;36794;51.212;6.980;2023-04-03T00:07:47;8.70;;;6.00;;
50821;SDS011;36794;51.212;6.980;2023-04-03T00:10:14;11.67;;;6.40;;
50821;SDS011;36794;51.212;6.980;2023-04-03T00:12:40;9.33;;;6.63;;
50821;SDS011;36794;51.212;6.980;2023-04-03T00:15:06;12.00;;;6.60;;
50821;SDS011;36794;51.212;6.980;2023-04-03T00:17:33;8.57;;;6.07;;
50821;SDS011;36794;51.212;6.980;2023-04-03T00:19:59;10.47;;;6.27;;
50821;SDS011;36794;51.212;6.980;2023-04-03T00:22:25;7.73;;;6.83;;
50821;SDS011;36794;51.212;6.980;2023-04-03T00:24:53;9.37;;;6.40;;
50821;SDS011;36794;51.212;6.980;2023-04-03T00:27:19;10.87;;;7.53;;
50821;SDS011;36794;51.212;6.980;2023-04-03T00:29:45;11.07;;;6.83;;
50821;SDS011;36794;51.212;6.980;2023-04-03T00:32:11;9.77;;;7.43;;
50821;SDS011;36794;51.212;6.980;2023-04-03T00:34:37;13.13;;;7.17;;
50821;SDS011;36794;51.212;6.980;2023-04-03T00:37:03;10.37;;;7.33;;
50821;SDS011;36794;51.212;6.980;2023-04-03T00:39:29;10.20;;;6.87;;
50821;SDS011;36794;51.212;6.980;2023-04-03T00:41:55;17.10;;;7.07;;
50821;SDS011;36794;51.212;6.980;2023-04-03T00:44:23;11.83;;;7.37;;
50821;SDS011;36794;51.212;6.980;2023-04-03T00:47:08;10.17;;;7.67;;
50821;SDS011;36794;51.212;6.980;2023-04-03T00:49:35;11.47;;;7.00;;
50821;SDS011;36794;51.212;6.980;2023-04-03T00:52:01;10.00;;;7.23;;
50821;SDS011;36794;51.212;6.980;2023-04-03T00:54:27;16.03;;;8.00;;
50821;SDS011;36794;51.212;6.980;2023-04-03T00:56:54;12.07;;;7.27;;
50821;SDS011;36794;51.212;6.980;2023-04-03T00:59:25;9.70;;;7.13;;
50821;SDS011;36794;51.212;6.980;2023-04-03T01:01:52;15.27;;;8.30;;
50821;SDS011;36794;51.212;6.980;2023-04-03T01:04:32;10.83;;;7.40;;
50821;SDS011;36794;51.212;6.980;2023-04-03T01:07:01;14.70;;;8.20;;
50821;SDS011;36794;51.212;6.980;2023-04-03T01:09:27;12.00;;;8.27;;
50821;SDS011;36794;51.212;6.980;2023-04-03T01:11:54;14.57;;;7.83;;
50821;SDS011;36794;51.212;6.980;2023-04-03T01:14:20;12.37;;;8.20;;
50821;SDS011;36794;51.212;6.980;2023-04-03T01:16:53;12.03;;;7.90;;
50821;SDS011;36794;51.212;6.980;2023-04-03T01:19:19;13.13;;;8.53;;
50821;SDS011;36794;51.212;6.980;2023-04-03T01:21:52;17.40;;;8.40;;
50821;SDS011;36794;51.212;6.980;2023-04-03T01:26:47;11.17;;;7.67;;
50821;SDS011;36794;51.212;6.980;2023-04-03T01:29:14;14.13;;;7.77;;
50821;SDS011;36794;51.212;6.980;2023-04-03T01:31:45;9.53;;;8.00;;
50821;SDS011;36794;51.212;6.980;2023-04-03T01:34:11;15.50;;;7.93;;
50821;SDS011;36794;51.212;6.980;2023-04-03T01:36:37;20.27;;;8.53;;
50821;SDS011;36794;51.212;6.980;2023-04-03T01:39:02;11.87;;;7.73;;
50821;SDS011;36794;51.212;6.980;2023-04-03T01:41:28;11.10;;;7.77;;
50821;SDS011;36794;51.212;6.980;2023-04-03T01:43:54;10.67;;;7.93;;
50821;SDS011;36794;51.212;6.980;2023-04-03T01:46:21;14.63;;;8.83;;
50821;SDS011;36794;51.212;6.980;2023-04-03T01:48:47;13.37;;;8.07;;
50821;SDS011;36794;51.212;6.980;2023-04-03T01:51:13;13.10;;;8.47;;
50821;SDS011;36794;51.212;6.980;2023-04-03T01:53:40;13.13;;;7.70;;
50821;SDS011;36794;51.212;6.980;2023-04-03T01:56:06;13.37;;;7.80;;
50821;SDS011;36794;51.212;6.980;2023-04-03T01:58:32;13.07;;;7.43;;
50821;SDS011;36794;51.212;6.980;2023-04-03T02:00:58;15.73;;;8.57;;
50821;SDS011;36794;51.212;6.980;2023-04-03T02:03:24;12.53;;;8.23;;
50821;SDS011;36794;51.212;6.980;2023-04-03T02:05:50;13.10;;;8.57;;
50821;SDS011;36794;51.212;6.980;2023-04-03T02:08:16;14.97;;;8.80;;
50821;SDS011;36794;51.212;6.980;2023-04-03T02:10:43;11.47;;;8.70;;
50821;SDS011;36794;51.212;6.980;2023-04-03T02:13:09;14.17;;;9.23;;
50821;SDS011;36794;51.212;6.980;2023-04-03T02:15:37;14.57;;;8.93;;
50821;SDS011;36794;51.212;6.980;2023-04-03T02:18:03;11.43;;;8.57;;
50821;SDS011;36794;51.212;6.980;2023-04-03T02:20:29;10.97;;;8.60;;
50821;SDS011;36794;51.212;6.980;2023-04-03T02:22:55;13.60;;;8.97;;
50821;SDS011;36794;51.212;6.980;2023-04-03T02:25:21;12.10;;;8.30;;
50821;SDS011;36794;51.212;6.980;2023-04-03T02:27:47;14.63;;;8.90;;
50821;SDS011;36794;51.212;6.980;2023-04-03T02:30:13;12.53;;;8.57;;
50821;SDS011;36794;51.212;6.980;2023-04-03T02:32:39;14.57;;;8.93;;
50821;SDS011;36794;51.212;6.980;2023-04-03T02:35:06;15.53;;;9.00;;
50821;SDS011;36794;51.212;6.980;2023-04-03T02:37:32;11.90;;;8.67;;
50821;SDS011;36794;51.212;6.980;2023-04-03T02:39:58;13.57;;;8.83;;
50821;SDS011;36794;51.212;6.980;2023-04-03T02:42:24;13.90;;;9.43;;
50821;SDS011;36794;51.212;6.980;2023-04-03T02:44:50;13.87;;;8.87;;
50821;SDS011;36794;51.212;6.980;2023-04-03T02:47:16;13.50;;;9.73;;
50821;SDS011;36794;51.212;6.980;2023-04-03T02:49:42;13.67;;;10.07;;
50821;SDS011;36794;51.212;6.980;2023-04-03T02:52:10;13.77;;;9.60;;
50821;SDS011;36794;51.212;6.980;2023-04-03T02:54:36;13.70;;;9.50;;
50821;SDS011;36794;51.212;6.980;2023-04-03T02:57:02;13.33;;;9.63;;
50821;SDS011;36794;51.212;6.980;2023-04-03T02:59:28;14.93;;;9.63;;
50821;SDS011;36794;51.212;6.980;2023-04-03T03:01:54;12.77;;;9.40;;
50821;SDS011;36794;51.212;6.980;2023-04-03T03:04:20;16.50;;;8.73;;
50821;SDS011;36794;51.212;6.980;2023-04-03T03:06:46;13.87;;;9.67;;
50821;SDS011;36794;51.212;6.980;2023-04-03T03:09:12;16.47;;;9.30;;
50821;SDS011;36794;51.212;6.980;2023-04-03T03:11:38;12.27;;;9.03;;
50821;SDS011;36794;51.212;6.980;2023-04-03T03:14:04;14.23;;;8.63;;
50821;SDS011;36794;51.212;6.980;2023-04-03T03:16:30;12.13;;;8.80;;
50821;SDS011;36794;51.212;6.980;2023-04-03T03:18:56;16.57;;;8.20;;
50821;SDS011;36794;51.212;6.980;2023-04-03T03:21:22;13.97;;;8.70;;
50821;SDS011;36794;51.212;6.980;2023-04-03T03:23:48;13.97;;;8.20;;
50821;SDS011;36794;51.212;6.980;2023-04-03T03:26:14;13.23;;;9.07;;
50821;SDS011;36794;51.212;6.980;2023-04-03T03:28:40;12.83;;;9.30;;
50821;SDS011;36794;51.212;6.980;2023-04-03T03:31:06;11.10;;;8.57;;
50821;SDS011;36794;51.212;6.980;2023-04-03T03:33:33;12.10;;;7.47;;
50821;SDS011;36794;51.212;6.980;2023-04-03T03:35:59;12.23;;;8.00;;
50821;SDS011;36794;51.212;6.980;2023-04-03T03:38:25;11.10;;;7.83;;
50821;SDS011;36794;51.212;6.980;2023-04-03T03:40:51;12.73;;;7.63;;
50821;SDS011;36794;51.212;6.980;2023-04-03T03:43:17;13.60;;;7.90;;
50821;SDS011;36794;51.212;6.980;2023-04-03T03:45:43;13.97;;;8.30;;
50821;SDS011;36794;51.212;6.980;2023-04-03T03:48:10;14.37;;;8.10;;
50821;SDS011;36794;51.212;6.980;2023-04-03T03:50:36;12.67;;;7.33;;
50821;SDS011;36794;51.212;6.980;2023-04-03T03:53:02;13.27;;;7.33;;
50821;SDS011;36794;51.212;6.980;2023-04-03T03:55:28;9.83;;;7.43;;
50821;SDS011;36794;51.212;6.980;2023-04-03T03:57:54;12.07;;;6.93;;
50821;SDS011;36794;51.212;6.980;2023-04-03T04:00:20;12.10;;;6.40;;
50821;SDS011;36794;51.212;6.980;2023-04-03T04:02:46;11.20;;;7.10;;
50821;SDS011;36794;51.212;6.980;2023-04-03T04:05:12;11.00;;;6.20;;
50821;SDS011;36794;51.212;6.980;2023-04-03T04:07:38;15.87;;;6.50;;
50821;SDS011;36794;51.212;6.980;2023-04-03T04:10:04;13.20;;;6.63;;
50821;SDS011;36794;51.212;6.980;2023-04-03T04:12:30;10.87;;;6.57;;
50821;SDS011;36794;51.212;6.980;2023-04-03T04:14:56;10.40;;;6.03;;
50821;SDS011;36794;51.212;6.980;2023-04-03T04:17:22;9.13;;;6.20;;
50821;SDS011;36794;51.212;6.980;2023-04-03T04:19:48;9.90;;;5.67;;
50821;SDS011;36794;51.212;6.980;2023-04-03T04:22:14;6.97;;;4.87;;
50821;SDS011;36794;51.212;6.980;2023-04-03T04:24:40;12.97;;;5.57;;
50821;SDS011;36794;51.212;6.980;2023-04-03T04:27:06;10.13;;;5.70;;
50821;SDS011;36794;51.212;6.980;2023-04-03T04:29:32;8.53;;;5.57;;
50821;SDS011;36794;51.212;6.980;2023-04-03T04:32:01;12.90;;;5.17;;
50821;SDS011;36794;51.212;6.980;2023-04-03T04:34:27;12.07;;;4.83;;
50821;SDS011;36794;51.212;6.980;2023-04-03T04:36:53;11.33;;;5.43;;
50821;SDS011;36794;51.212;6.980;2023-04-03T04:39:19;14.57;;;5.47;;
50821;SDS011;36794;51.212;6.980;2023-04-03T04:41:45;14.23;;;6.33;;
50821;SDS011;36794;51.212;6.980;2023-04-03T04:44:11;9.83;;;5.23;;
50821;SDS011;36794;51.212;6.980;2023-04-03T04:46:37;9.73;;;4.87;;
50821;SDS011;36794;51.212;6.980;2023-04-03T04:49:03;9.50;;;6.07;;
50821;SDS011;36794;51.212;6.980;2023-04-03T04:51:29;8.93;;;4.77;;
50821;SDS011;36794;51.212;6.980;2023-04-03T04:53:55;12.07;;;5.33;;
50821;SDS011;36794;51.212;6.980;2023-04-03T04:56:21;10.87;;;5.10;;
50821;SDS011;36794;51.212;6.980;2023-04-03T04:58:47;8.63;;;4.73;;
50821;SDS011;36794;51.212;6.980;2023-04-03T05:01:13;8.23;;;5.83;;
50821;SDS011;36794;51.212;6.980;2023-04-03T05:03:39;8.13;;;5.03;;
50821;SDS011;36794;51.212;6.980;2023-04-03T05:06:05;6.83;;;4.50;;
50821;SDS011;36794;51.212;6.980;2023-04-03T05:08:31;13.23;;;4.67;;
50821;SDS011;36794;51.212;6.980;2023-04-03T05:10:57;9.40;;;4.53;;
50821;SDS011;36794;51.212;6.980;2023-04-03T05:13:23;12.60;;;5.30;;
50821;SDS011;36794;51.212;6.980;2023-04-03T05:15:49;8.40;;;5.17;;
50821;SDS011;36794;51.212;6.980;2023-04-03T05:18:15;8.77;;;4.17;;
50821;SDS011;36794;51.212;6.980;2023-04-03T05:20:41;14.27;;;4.63;;
50821;SDS011;36794;51.212;6.980;2023-04-03T05:23:08;10.67;;;4.87;;
50821;SDS011;36794;51.212;6.980;2023-04-03T05:25:34;11.07;;;4.73;;
50821;SDS011;36794;51.212;6.980;2023-04-03T05:28:02;9.27;;;4.63;;
50821;SDS011;36794;51.212;6.980;2023-04-03T05:30:28;7.43;;;4.50;;
50821;SDS011;36794;51.212;6.980;2023-04-03T05:32:54;10.53;;;4.40;;
50821;SDS011;36794;51.212;6.980;2023-04-03T05:35:20;10.27;;;4.23;;
50821;SDS011;36794;51.212;6.980;2023-04-03T05:37:46;8.87;;;3.93;;
50821;SDS011;36794;51.212;6.980;2023-04-03T05:40:12;8.37;;;4.00;;
50821;SDS011;36794;51.212;6.980;2023-04-03T05:42:38;9.33;;;3.80;;
50821;SDS011;36794;51.212;6.980;2023-04-03T05:45:04;8.23;;;4.13;;
50821;SDS011;36794;51.212;6.980;2023-04-03T05:47:31;7.97;;;3.70;;
50821;SDS011;36794;51.212;6.980;2023-04-03T05:49:57;10.63;;;3.67;;
50821;SDS011;36794;51.212;6.980;2023-04-03T05:52:25;6.97;;;3.70;;
50821;SDS011;36794;51.212;6.980;2023-04-03T05:54:51;10.10;;;3.40;;
50821;SDS011;36794;51.212;6.980;2023-04-03T05:57:17;6.43;;;3.80;;
50821;SDS011;36794;51.212;6.980;2023-04-03T05:59:44;6.67;;;3.00;;
50821;SDS011;36794;51.212;6.980;2023-04-03T06:02:11;7.60;;;3.10;;
50821;SDS011;36794;51.212;6.980;2023-04-03T06:04:38;10.00;;;2.80;;
50821;SDS011;36794;51.212;6.980;2023-04-03T06:07:04;8.13;;;3.33;;
50821;SDS011;36794;51.212;6.980;2023-04-03T06:09:30;7.27;;;2.97;;
50821;SDS011;36794;51.212;6.980;2023-04-03T06:11:56;11.63;;;3.27;;
50821;SDS011;36794;51.212;6.980;2023-04-03T06:14:23;10.23;;;3.40;;
50821;SDS011;36794;51.212;6.980;2023-04-03T06:16:50;8.93;;;2.80;;
50821;SDS011;36794;51.212;6.980;2023-04-03T06:19:16;8.93;;;2.57;;
50821;SDS011;36794;51.212;6.980;2023-04-03T06:21:42;14.40;;;2.73;;
50821;SDS011;36794;51.212;6.980;2023-04-03T06:24:09;7.87;;;2.10;;
50821;SDS011;36794;51.212;6.980;2023-04-03T06:26:35;7.57;;;2.53;;
50821;SDS011;36794;51.212;6.980;2023-04-03T06:29:01;5.90;;;2.10;;
50821;SDS011;36794;51.212;6.980;2023-04-03T06:31:27;6.40;;;2.10;;
50821;SDS011;36794;51.212;6.980;2023-04-03T06:33:53;5.77;;;2.40;;
50821;SDS011;36794;51.212;6.980;2023-04-03T06:36:19;6.87;;;2.00;;
50821;SDS011;36794;51.212;6.980;2023-04-03T06:38:46;6.33;;;2.00;;
50821;SDS011;36794;51.212;6.980;2023-04-03T06:41:12;9.33;;;2.27;;
50821;SDS011;36794;51.212;6.980;2023-04-03T06:43:38;6.37;;;1.97;;
50821;SDS011;36794;51.212;6.980;2023-04-03T06:46:04;7.30;;;2.40;;
50821;SDS011;36794;51.212;6.980;2023-04-03T06:48:30;6.80;;;2.33;;
50821;SDS011;36794;51.212;6.980;2023-04-03T06:50:56;6.67;;;2.20;;
50821;SDS011;36794;51.212;6.980;2023-04-03T06:53:22;8.10;;;1.80;;
50821;SDS011;36794;51.212;6.980;2023-04-03T06:55:48;6.67;;;2.20;;
50821;SDS011;36794;51.212;6.980;2023-04-03T06:58:14;8.57;;;2.40;;
50821;SDS011;36794;51.212;6.980;2023-04-03T07:00:42;7.30;;;2.30;;
50821;SDS011;36794;51.212;6.980;2023-04-03T07:03:08;6.57;;;2.00;;
50821;SDS011;36794;51.212;6.980;2023-04-03T07:05:34;8.37;;;1.93;;
50821;SDS011;36794;51.212;6.980;2023-04-03T07:08:00;6.80;;;2.20;;
50821;SDS011;36794;51.212;6.980;2023-04-03T07:10:26;8.20;;;2.30;;
50821;SDS011;36794;51.212;6.980;2023-04-03T07:12:52;8.67;;;2.23;;
50821;SDS011;36794;51.212;6.980;2023-04-03T07:15:18;11.73;;;2.23;;
50821;SDS011;36794;51.212;6.980;2023-04-03T07:17:44;5.33;;;1.70;;
50821;SDS011;36794;51.212;6.980;2023-04-03T07:20:11;5.50;;;2.07;;
50821;SDS011;36794;51.212;6.980;2023-04-03T07:22:37;6.47;;;2.20;;
50821;SDS011;36794;51.212;6.980;2023-04-03T07:25:03;10.17;;;2.30;;
50821;SDS011;36794;51.212;6.980;2023-04-03T07:27:29;7.53;;;2.00;;
50821;SDS011;36794;51.212;6.980;2023-04-03T07:29:55;5.07;;;1.80;;
50821;SDS011;36794;51.212;6.980;2023-04-03T07:32:21;3.97;;;1.40;;
50821;SDS011;36794;51.212;6.980;2023-04-03T07:34:47;10.50;;;1.80;;
50821;SDS011;36794;51.212;6.980;2023-04-03T07:37:13;6.40;;;1.50;;
50821;SDS011;36794;51.212;6.980;2023-04-03T07:39:39;5.07;;;1.33;;
50821;SDS011;36794;51.212;6.980;2023-04-03T07:42:06;4.77;;;1.53;;
50821;SDS011;36794;51.212;6.980;2023-04-03T07:44:33;9.83;;;2.10;;
50821;SDS011;36794;51.212;6.980;2023-04-03T07:46:59;6.20;;;1.70;;
50821;SDS011;36794;51.212;6.980;2023-04-03T07:49:25;6.73;;;1.77;;
50821;SDS011;36794;51.212;6.980;2023-04-03T07:51:52;6.07;;;1.60;;
50821;SDS011;36794;51.212;6.980;2023-04-03T07:54:18;8.67;;;1.73;;
50821;SDS011;36794;51.212;6.980;2023-04-03T07:56:44;7.27;;;1.60;;
50821;SDS011;36794;51.212;6.980;2023-04-03T07:59:10;13.37;;;1.80;;
50821;SDS011;36794;51.212;6.980;2023-04-03T08:01:36;9.53;;;1.40;;
50821;SDS011;36794;51.212;6.980;2023-04-03T08:04:02;7.37;;;1.50;;
50821;SDS011;36794;51.212;6.980;2023-04-03T08:06:28;5.73;;;1.50;;
50821;SDS011;36794;51.212;6.980;2023-04-03T08:08:55;5.80;;;1.40;;
50821;SDS011;36794;51.212;6.980;2023-04-03T08:11:21;5.47;;;1.60;;
50821;SDS011;36794;51.212;6.980;2023-04-03T08:13:48;5.00;;;1.20;;
50821;SDS011;36794;51.212;6.980;2023-04-03T08:16:17;5.27;;;1.43;;
50821;SDS011;36794;51.212;6.980;2023-04-03T08:18:43;7.33;;;1.70;;
50821;SDS011;36794;51.212;6.980;2023-04-03T08:21:10;4.90;;;1.30;;
50821;SDS011;36794;51.212;6.980;2023-04-03T08:23:37;2.10;;;1.23;;
50821;SDS011;36794;51.212;6.980;2023-04-03T08:26:07;4.00;;;1.43;;
50821;SDS011;36794;51.212;6.980;2023-04-03T08:28:33;5.23;;;1.73;;
50821;SDS011;36794;51.212;6.980;2023-04-03T08:31:02;5.57;;;1.30;;
50821;SDS011;36794;51.212;6.980;2023-04-03T08:33:28;4.83;;;1.10;;
50821;SDS011;36794;51.212;6.980;2023-04-03T08:35:54;7.77;;;1.80;;
50821;SDS011;36794;51.212;6.980;2023-04-03T08:38:20;3.67;;;1.27;;
50821;SDS011;36794;51.212;6.980;2023-04-03T08:40:46;4.37;;;1.40;;
50821;SDS011;36794;51.212;6.980;2023-04-03T08:45:48;9.70;;;1.40;;
50821;SDS011;36794;51.212;6.980;2023-04-03T08:48:18;7.00;;;1.30;;
50821;SDS011;36794;51.212;6.980;2023-04-03T08:50:46;4.07;;;1.20;;
50821;SDS011;36794;51.212;6.980;2023-04-03T08:53:15;5.97;;;1.30;;
50821;SDS011;36794;51.212;6.980;2023-04-03T08:55:48;5.07;;;1.10;;
50821;SDS011;36794;51.212;6.980;2023-04-03T08:58:24;5.33;;;1.00;;
50821;SDS011;36794;51.212;6.980;2023-04-03T09:00:51;4.93;;;1.40;;
50821;SDS011;36794;51.212;6.980;2023-04-03T09:03:20;3.03;;;1.17;;
50821;SDS011;36794;51.212;6.980;2023-04-03T09:05:53;5.13;;;1.50;;
50821;SDS011;36794;51.212;6.980;2023-04-03T09:08:26;7.47;;;1.30;;
50821;SDS011;36794;51.212;6.980;2023-04-03T09:10:58;3.77;;;1.00;;
50821;SDS011;36794;51.212;6.980;2023-04-03T09:16:02;5.47;;;1.20;;
50821;SDS011;36794;51.212;6.980;2023-04-03T09:18:30;4.70;;;1.20;;
50821;SDS011;36794;51.212;6.980;2023-04-03T09:21:17;6.10;;;1.13;;
50821;SDS011;36794;51.212;6.980;2023-04-03T09:23:50;4.97;;;1.00;;
50821;SDS011;36794;51.212;6.980;2023-04-03T09:26:26;4.63;;;1.00;;
50821;SDS011;36794;51.212;6.980;2023-04-03T09:28:54;4.53;;;1.03;;
50821;SDS011;36794;51.212;6.980;2023-04-03T09:33:50;5.47;;;1.13;;
50821;SDS011;36794;51.212;6.980;2023-04-03T09:39:08;6.00;;;1.25;;
50821;SDS011;36794;51.212;6.980;2023-04-03T09:41:35;3.33;;;1.00;;
50821;SDS011;36794;51.212;6.980;2023-04-03T09:44:01;1.77;;;0.77;;
50821;SDS011;36794;51.212;6.980;2023-04-03T09:46:31;5.77;;;1.50;;
50821;SDS011;36794;51.212;6.980;2023-04-03T09:48:58;4.60;;;1.03;;
50821;SDS011;36794;51.212;6.980;2023-04-03T09:51:28;4.93;;;1.30;;
50821;SDS011;36794;51.212;6.980;2023-04-03T09:53:55;5.37;;;1.10;;
50821;SDS011;36794;51.212;6.980;2023-04-03T09:56:22;3.93;;;1.00;;
50821;SDS011;36794;51.212;6.980;2023-04-03T09:58:49;7.57;;;1.20;;
50821;SDS011;36794;51.212;6.980;2023-04-03T10:01:26;3.13;;;1.30;;
50821;SDS011;36794;51.212;6.980;2023-04-03T10:06:47;6.38;;;1.10;;
50821;SDS011;36794;51.212;6.980;2023-04-03T10:09:28;3.17;;;1.10;;
50821;SDS011;36794;51.212;6.980;2023-04-03T10:12:04;6.87;;;0.70;;
50821;SDS011;36794;51.212;6.980;2023-04-03T10:14:31;2.30;;;0.87;;
50821;SDS011;36794;51.212;6.980;2023-04-03T10:19:53;2.50;;;0.87;;
50821;SDS011;36794;51.212;6.980;2023-04-03T10:22:40;4.27;;;0.90;;
50821;SDS011;36794;51.212;6.980;2023-04-03T10:25:12;2.67;;;0.60;;
50821;SDS011;36794;51.212;6.980;2023-04-03T10:35:37;3.87;;;0.97;;
50821;SDS011;36794;51.212;6.980;2023-04-03T10:38:20;2.43;;;0.63;;
50821;SDS011;36794;51.212;6.980;2023-04-03T10:40:52;1.80;;;0.55;;
50821;SDS011;36794;51.212;6.980;2023-04-03T10:43:24;2.60;;;0.50;;
50821;SDS011;36794;51.212;6.980;2023-04-03T10:46:00;4.13;;;0.60;;
50821;SDS011;36794;51.212;6.980;2023-04-03T10:48:36;3.40;;;0.80;;
50821;SDS011;36794;51.212;6.980;2023-04-03T10:51:07;2.70;;;0.73;;
50821;SDS011;36794;51.212;6.980;2023-04-03T10:53:42;3.80;;;0.87;;
50821;SDS011;36794;51.212;6.980;2023-04-03T10:56:22;3.30;;;0.60;;
50821;SDS011;36794;51.212;6.980;2023-04-03T10:58:54;8.67;;;0.90;;
50821;SDS011;36794;51.212;6.980;2023-04-03T11:01:24;4.73;;;0.77;;
50821;SDS011;36794;51.212;6.980;2023-04-03T11:03:54;3.67;;;0.80;;
50821;SDS011;36794;51.212;6.980;2023-04-03T11:06:21;1.17;;;0.50;;
50821;SDS011;36794;51.212;6.980;2023-04-03T11:08:50;2.50;;;0.50;;
50821;SDS011;36794;51.212;6.980;2023-04-03T11:11:26;1.50;;;0.80;;
50821;SDS011;36794;51.212;6.980;2023-04-03T11:13:57;3.40;;;0.60;;
50821;SDS011;36794;51.212;6.980;2023-04-03T11:16:27;2.37;;;0.70;;
50821;SDS011;36794;51.212;6.980;2023-04-03T11:18:59;5.07;;;0.70;;
50821;SDS011;36794;51.212;6.980;2023-04-03T11:21:29;2.33;;;0.55;;
50821;SDS011;36794;51.212;6.980;2023-04-03T11:23:56;1.13;;;0.37;;
50821;SDS011;36794;51.212;6.980;2023-04-03T11:26:24;2.23;;;0.40;;
50821;SDS011;36794;51.212;6.980;2023-04-03T11:28:53;3.47;;;0.67;;
50821;SDS011;36794;51.212;6.980;2023-04-03T11:31:28;1.97;;;0.60;;
50821;SDS011;36794;51.212;6.980;2023-04-03T11:33:58;5.83;;;0.83;;
50821;SDS011;36794;51.212;6.980;2023-04-03T11:36:32;4.43;;;0.50;;
50821;SDS011;36794;51.212;6.980;2023-04-03T11:39:01;1.40;;;0.50;;
50821;SDS011;36794;51.212;6.980;2023-04-03T11:41:28;1.90;;;0.60;;
50821;SDS011;36794;51.212;6.980;2023-04-03T11:43:56;2.13;;;0.57;;
50821;SDS011;36794;51.212;6.980;2023-04-03T11:46:23;4.00;;;0.43;;
50821;SDS011;36794;51.212;6.980;2023-04-03T11:49:49;1.27;;;0.40;;
50821;SDS011;36794;51.212;6.980;2023-04-03T11:51:55;1.40;;;0.40;;
50821;SDS011;36794;51.212;6.980;2023-04-03T11:54:34;2.57;;;0.63;;
50821;SDS011;36794;51.212;6.980;2023-04-03T11:57:13;2.33;;;0.70;;
50821;SDS011;36794;51.212;6.980;2023-04-03T11:59:46;1.83;;;0.47;;
50821;SDS011;36794;51.212;6.980;2023-04-03T12:16:10;2.37;;;0.50;;
50821;SDS011;36794;51.212;6.980;2023-04-03T12:18:53;2.93;;;0.50;;
50821;SDS011;36794;51.212;6.980;2023-04-03T12:26:34;3.65;;;0.65;;
50821;SDS011;36794;51.212;6.980;2023-04-03T12:29:07;4.83;;;0.70;;
50821;SDS011;36794;51.212;6.980;2023-04-03T12:31:39;2.00;;;0.60;;
50821;SDS011;36794;51.212;6.980;2023-04-03T12:34:24;2.27;;;0.80;;
50821;SDS011;36794;51.212;6.980;2023-04-03T12:39:51;1.80;;;0.47;;
50821;SDS011;36794;51.212;6.980;2023-04-03T12:44:55;3.10;;;0.90;;
50821;SDS011;36794;51.212;6.980;2023-04-03T12:49:54;1.20;;;0.43;;
50821;SDS011;36794;51.212;6.980;2023-04-03T12:52:32;4.03;;;0.90;;
50821;SDS011;36794;51.212;6.980;2023-04-03T12:54:59;4.50;;;0.90;;
50821;SDS011;36794;51.212;6.980;2023-04-03T12:57:29;1.43;;;0.60;;
50821;SDS011;36794;51.212;6.980;2023-04-03T12:59:55;1.40;;;0.60;;
50821;SDS011;36794;51.212;6.980;2023-04-03T13:04:48;3.20;;;1.07;;
50821;SDS011;36794;51.212;6.980;2023-04-03T13:10:13;1.97;;;0.50;;
50821;SDS011;36794;51.212;6.980;2023-04-03T13:12:57;2.60;;;0.73;;
50821;SDS011;36794;51.212;6.980;2023-04-03T13:15:25;6.77;;;0.73;;
50821;SDS011;36794;51.212;6.980;2023-04-03T13:17:51;3.53;;;0.80;;
50821;SDS011;36794;51.212;6.980;2023-04-03T13:20:28;3.73;;;0.93;;
50821;SDS011;36794;51.212;6.980;2023-04-03T13:23:07;5.73;;;0.80;;
50821;SDS011;36794;51.212;6.980;2023-04-03T13:25:35;5.63;;;0.80;;
50821;SDS011;36794;51.212;6.980;2023-04-03T13:28:02;3.13;;;0.80;;
50821;SDS011;36794;51.212;6.980;2023-04-03T13:30:34;2.63;;;0.70;;
50821;SDS011;36794;51.212;6.980;2023-04-03T13:33:02;3.87;;;0.90;;
50821;SDS011;36794;51.212;6.980;2023-04-03T13:35:31;4.50;;;0.67;;
50821;SDS011;36794;51.212;6.980;2023-04-03T13:37:59;6.27;;;1.00;;
50821;SDS011;36794;51.212;6.980;2023-04-03T13:40:25;5.80;;;1.10;;
50821;SDS011;36794;51.212;6.980;2023-04-03T13:42:59;4.27;;;0.90;;
50821;SDS011;36794;51.212;6.980;2023-04-03T13:45:26;1.80;;;0.80;;
50821;SDS011;36794;51.212;6.980;2023-04-03T13:48:16;3.77;;;1.00;;
50821;SDS011;36794;51.212;6.980;2023-04-03T13:53:20;1.47;;;0.60;;
50821;SDS011;36794;51.212;6.980;2023-04-03T13:58:28;6.77;;;1.10;;
50821;SDS011;36794;51.212;6.980;2023-04-03T14:03:29;2.17;;;0.80;;
50821;SDS011;36794;51.212;6.980;2023-04-03T14:05:55;4.13;;;0.85;;
50821;SDS011;36794;51.212;6.980;2023-04-03T14:08:24;3.27;;;0.80;;
50821;SDS011;36794;51.212;6.980;2023-04-03T14:10:50;3.63;;;0.87;;
50821;SDS011;36794;51.212;6.980;2023-04-03T14:13:17;4.40;;;0.97;;
50821;SDS011;36794;51.212;6.980;2023-04-03T14:15:44;1.50;;;0.77;;
50821;SDS011;36794;51.212;6.980;2023-04-03T14:18:15;2.93;;;0.50;;
50821;SDS011;36794;51.212;6.980;2023-04-03T14:20:42;3.97;;;0.83;;
50821;SDS011;36794;51.212;6.980;2023-04-03T14:23:08;2.90;;;0.90;;
50821;SDS011;36794;51.212;6.980;2023-04-03T14:25:35;3.67;;;1.33;;
50821;SDS011;36794;51.212;6.980;2023-04-03T14:28:01;2.27;;;0.90;;
50821;SDS011;36794;51.212;6.980;2023-04-03T14:30:29;4.07;;;0.73;;
50821;SDS011;36794;51.212;6.980;2023-04-03T14:32:55;2.63;;;0.77;;
50821;SDS011;36794;51.212;6.980;2023-04-03T14:35:24;5.60;;;0.97;;
50821;SDS011;36794;51.212;6.980;2023-04-03T14:37:51;3.97;;;0.80;;
50821;SDS011;36794;51.212;6.980;2023-04-03T14:40:18;2.50;;;0.80;;
50821;SDS011;36794;51.212;6.980;2023-04-03T14:42:45;2.73;;;0.73;;
50821;SDS011;36794;51.212;6.980;2023-04-03T14:45:13;4.50;;;1.17;;
50821;SDS011;36794;51.212;6.980;2023-04-03T14:47:50;3.87;;;0.80;;
50821;SDS011;36794;51.212;6.980;2023-04-03T14:50:18;2.63;;;0.60;;
50821;SDS011;36794;51.212;6.980;2023-04-03T14:52:46;4.20;;;1.20;;
50821;SDS011;36794;51.212;6.980;2023-04-03T14:55:14;2.43;;;0.77;;
50821;SDS011;36794;51.212;6.980;2023-04-03T14:57:40;5.50;;;0.93;;
50821;SDS011;36794;51.212;6.980;2023-04-03T15:00:16;4.93;;;0.90;;
50821;SDS011;36794;51.212;6.980;2023-04-03T15:02:43;3.73;;;1.10;;
50821;SDS011;36794;51.212;6.980;2023-04-03T15:05:12;3.27;;;0.70;;
50821;SDS011;36794;51.212;6.980;2023-04-03T15:07:39;1.97;;;1.30;;
50821;SDS011;36794;51.212;6.980;2023-04-03T15:12:41;2.90;;;0.90;;
50821;SDS011;36794;51.212;6.980;2023-04-03T15:15:08;8.77;;;1.30;;
50821;SDS011;36794;51.212;6.980;2023-04-03T15:17:34;3.63;;;1.30;;
50821;SDS011;36794;51.212;6.980;2023-04-03T15:20:00;1.93;;;0.70;;
50821;SDS011;36794;51.212;6.980;2023-04-03T15:22:27;4.00;;;0.60;;
50821;SDS011;36794;51.212;6.980;2023-04-03T15:24:53;3.97;;;0.90;;
50821;SDS011;36794;51.212;6.980;2023-04-03T15:27:19;6.07;;;1.40;;
50821;SDS011;36794;51.212;6.980;2023-04-03T15:29:45;3.60;;;0.93;;
50821;SDS011;36794;51.212;6.980;2023-04-03T15:32:11;2.70;;;0.80;;
50821;SDS011;36794;51.212;6.980;2023-04-03T15:34:37;1.77;;;0.80;;
50821;SDS011;36794;51.212;6.980;2023-04-03T15:37:03;3.60;;;0.90;;
50821;SDS011;36794;51.212;6.980;2023-04-03T15:39:30;2.53;;;1.00;;
50821;SDS011;36794;51.212;6.980;2023-04-03T15:41:56;4.50;;;1.10;;
50821;SDS011;36794;51.212;6.980;2023-04-03T15:44:28;4.13;;;1.10;;
50821;SDS011;36794;51.212;6.980;2023-04-03T15:46:54;4.23;;;0.90;;
50821;SDS011;36794;51.212;6.980;2023-04-03T15:49:20;3.60;;;0.87;;
50821;SDS011;36794;51.212;6.980;2023-04-03T15:51:47;3.53;;;1.00;;
50821;SDS011;36794;51.212;6.980;2023-04-03T15:54:13;5.90;;;0.90;;
50821;SDS011;36794;51.212;6.980;2023-04-03T15:56:39;4.20;;;0.93;;